Time;durP1;ratioP1;P1;durP2;ratioP2;P2;SDS_P1;SDS_P2;PMS_P1;PMS_P2;Temp;Humidity;BMP_temperature;BMP_pressure;BME280_temperature;BME280_humidity;BME280_pressure;Samples;Min_cycle;Max_cycle;Signal;HPM_P1;HPM_P2
2021/05/23 00:00:00;;;;;;;6.60;4.70;;;;;;;;;;5094893;28;20099;-67
2021/05/23 00:02:26;;;;;;;7.88;3.85;;;;;;;;;;5094796;28;20529;-67
2021/05/23 00:04:52;;;;;;;6.28;3.80;;;;;;;;;;5094881;28;20035;-67
2021/05/23 00:07:18;;;;;;;10.45;4.18;;;;;;;;;;5094457;28;20564;-67
2021/05/23 00:09:45;;;;;;;5.13;3.38;;;;;;;;;;5094798;28;20194;-67
2021/05/23 00:12:13;;;;;;;6.20;3.15;;;;;;;;;;5094783;28;20020;-66
2021/05/23 00:14:39;;;;;;;6.55;3.17;;;;;;;;;;5094672;28;20044;-67
2021/05/23 00:17:05;;;;;;;4.50;2.78;;;;;;;;;;5094399;28;20024;-68
2021/05/23 00:19:31;;;;;;;3.35;2.65;;;;;;;;;;5094525;28;20103;-66
2021/05/23 00:21:58;;;;;;;3.95;3.40;;;;;;;;;;5094537;28;20028;-66
2021/05/23 00:24:24;;;;;;;4.13;2.50;;;;;;;;;;5102386;28;20084;-67
2021/05/23 00:26:51;;;;;;;3.53;2.60;;;;;;;;;;5114738;28;20035;-68
2021/05/23 00:29:17;;;;;;;3.40;2.70;;;;;;;;;;5114719;28;20028;-66
2021/05/23 00:31:44;;;;;;;4.50;2.78;;;;;;;;;;5114594;28;20023;-67
2021/05/23 00:34:10;;;;;;;2.78;2.35;;;;;;;;;;5114592;28;20016;-67
2021/05/23 00:36:36;;;;;;;4.13;2.40;;;;;;;;;;5114687;28;20382;-65
2021/05/23 00:39:02;;;;;;;4.75;2.70;;;;;;;;;;5114458;28;20081;-66
2021/05/23 00:41:28;;;;;;;3.13;2.53;;;;;;;;;;5114501;28;20484;-67
2021/05/23 00:43:54;;;;;;;8.63;3.42;;;;;;;;;;5114427;28;20110;-67
2021/05/23 00:46:21;;;;;;;6.30;3.53;;;;;;;;;;5114007;28;20108;-67
2021/05/23 00:48:47;;;;;;;5.32;2.78;;;;;;;;;;5114244;28;20397;-68
2021/05/23 00:51:13;;;;;;;8.07;3.58;;;;;;;;;;5114349;28;20020;-66
2021/05/23 00:53:39;;;;;;;7.35;3.63;;;;;;;;;;5114216;28;20535;-67
2021/05/23 00:56:05;;;;;;;6.70;3.50;;;;;;;;;;5114148;28;20500;-68
2021/05/23 00:58:31;;;;;;;6.82;4.63;;;;;;;;;;5114100;28;20501;-66
2021/05/23 01:01:10;;;;;;;7.57;4.50;;;;;;;;;;5114068;28;20028;-66
2021/05/23 01:03:36;;;;;;;8.20;4.05;;;;;;;;;;5113973;28;20031;-68
2021/05/23 01:06:04;;;;;;;6.53;3.75;;;;;;;;;;5113938;28;20504;-67
2021/05/23 01:08:31;;;;;;;5.72;3.53;;;;;;;;;;5113861;28;20040;-67
2021/05/23 01:10:57;;;;;;;5.07;3.70;;;;;;;;;;5114039;28;20500;-68
2021/05/23 01:13:38;;;;;;;6.32;3.10;;;;;;;;;;5113823;28;20038;-67
2021/05/23 01:16:09;;;;;;;4.70;2.92;;;;;;;;;;5113616;28;20028;-65
2021/05/23 01:19:02;;;;;;;3.53;2.50;;;;;;;;;;5113840;28;20028;-66
2021/05/23 01:21:29;;;;;;;5.63;2.67;;;;;;;;;;5110089;28;20498;-67
2021/05/23 01:24:00;;;;;;;6.55;3.58;;;;;;;;;;5113546;28;20415;-66
2021/05/23 01:26:33;;;;;;;3.67;2.35;;;;;;;;;;5113663;28;20024;-67
2021/05/23 01:29:02;;;;;;;3.75;2.83;;;;;;;;;;5113483;28;20035;-67
2021/05/23 01:31:30;;;;;;;5.50;2.72;;;;;;;;;;5113529;28;20103;-66
2021/05/23 01:33:57;;;;;;;11.18;3.20;;;;;;;;;;5113850;28;20047;-67
2021/05/23 01:36:24;;;;;;;3.58;2.20;;;;;;;;;;5113517;28;20102;-67
2021/05/23 01:38:51;;;;;;;4.32;2.40;;;;;;;;;;5113469;28;20028;-67
2021/05/23 01:41:17;;;;;;;3.85;2.40;;;;;;;;;;5113388;28;20051;-67
2021/05/23 01:43:43;;;;;;;4.82;2.20;;;;;;;;;;5113242;28;20041;-67
2021/05/23 01:46:10;;;;;;;5.13;2.20;;;;;;;;;;5113311;28;20428;-66
2021/05/23 01:48:37;;;;;;;3.55;3.13;;;;;;;;;;5113152;28;20466;-67
2021/05/23 01:51:03;;;;;;;3.10;2.42;;;;;;;;;;5113216;28;20024;-68
2021/05/23 01:53:30;;;;;;;3.35;2.25;;;;;;;;;;5113257;28;20020;-67
2021/05/23 01:55:56;;;;;;;3.88;2.35;;;;;;;;;;5112861;28;20051;-66
2021/05/23 01:58:22;;;;;;;6.45;2.17;;;;;;;;;;5112843;28;20030;-67
2021/05/23 02:00:49;;;;;;;2.42;2.17;;;;;;;;;;5113047;28;20032;-66
2021/05/23 02:03:17;;;;;;;4.30;2.38;;;;;;;;;;5113121;28;20024;-67
2021/05/23 02:05:44;;;;;;;4.32;1.90;;;;;;;;;;5113262;28;20408;-67
2021/05/23 02:08:11;;;;;;;2.15;1.95;;;;;;;;;;5112711;28;20054;-67
2021/05/23 02:10:37;;;;;;;7.75;3.60;;;;;;;;;;5112958;28;20027;-67
2021/05/23 02:13:04;;;;;;;3.10;2.00;;;;;;;;;;5112746;28;20031;-68
2021/05/23 02:15:30;;;;;;;3.17;2.15;;;;;;;;;;5112944;28;20024;-67
2021/05/23 02:17:56;;;;;;;3.22;2.15;;;;;;;;;;5112903;28;20027;-67
2021/05/23 02:20:28;;;;;;;5.60;1.83;;;;;;;;;;5113072;28;20019;-67
2021/05/23 02:22:57;;;;;;;3.65;2.22;;;;;;;;;;5116827;28;20156;-67
2021/05/23 02:25:24;;;;;;;6.90;2.17;;;;;;;;;;5116830;28;20032;-67
2021/05/23 02:27:54;;;;;;;3.78;2.10;;;;;;;;;;5112745;28;20043;-67
2021/05/23 02:30:22;;;;;;;4.68;2.10;;;;;;;;;;5112751;28;20028;-67
2021/05/23 02:32:48;;;;;;;3.15;1.98;;;;;;;;;;5113098;28;20031;-66
2021/05/23 02:35:17;;;;;;;3.15;2.15;;;;;;;;;;5112793;28;20382;-67
2021/05/23 02:37:43;;;;;;;4.70;2.03;;;;;;;;;;5112285;28;20055;-66
2021/05/23 02:40:10;;;;;;;4.40;1.98;;;;;;;;;;5112797;28;20020;-67
2021/05/23 02:42:37;;;;;;;4.05;2.13;;;;;;;;;;5112851;28;20077;-67
2021/05/23 02:45:04;;;;;;;4.75;2.25;;;;;;;;;;5112854;28;20020;-67
2021/05/23 02:47:30;;;;;;;6.95;2.08;;;;;;;;;;5112622;28;20030;-67
2021/05/23 02:49:56;;;;;;;5.88;2.10;;;;;;;;;;5113178;28;20099;-72
2021/05/23 02:52:22;;;;;;;2.90;1.98;;;;;;;;;;5112531;28;20069;-67
2021/05/23 02:54:49;;;;;;;3.67;2.00;;;;;;;;;;5112555;28;20073;-68
2021/05/23 02:57:16;;;;;;;4.65;2.38;;;;;;;;;;5112665;28;20423;-67
2021/05/23 02:59:43;;;;;;;5.35;2.13;;;;;;;;;;5112677;28;20383;-67
2021/05/23 03:02:09;;;;;;;4.63;2.53;;;;;;;;;;5112475;28;20020;-67
2021/05/23 03:04:35;;;;;;;3.22;1.88;;;;;;;;;;5112505;28;20039;-67
2021/05/23 03:07:02;;;;;;;3.80;2.10;;;;;;;;;;5112096;28;20069;-67
2021/05/23 03:09:28;;;;;;;7.95;2.42;;;;;;;;;;5116454;28;20024;-67
2021/05/23 03:11:54;;;;;;;4.38;2.40;;;;;;;;;;5116253;28;20024;-67
2021/05/23 03:14:20;;;;;;;4.22;2.00;;;;;;;;;;5116339;28;20505;-67
2021/05/23 03:16:46;;;;;;;2.22;2.03;;;;;;;;;;5116197;28;20028;-68
2021/05/23 03:19:13;;;;;;;2.45;2.25;;;;;;;;;;5116179;28;20077;-68
2021/05/23 03:21:39;;;;;;;2.17;1.98;;;;;;;;;;5115978;28;20034;-67
2021/05/23 03:24:06;;;;;;;4.32;2.45;;;;;;;;;;5116115;28;20078;-67
2021/05/23 03:26:32;;;;;;;4.32;2.20;;;;;;;;;;5097674;28;20410;-66
2021/05/23 03:28:58;;;;;;;6.15;2.55;;;;;;;;;;5115894;28;20035;-66
2021/05/23 03:31:24;;;;;;;3.70;2.10;;;;;;;;;;5115933;28;20026;-71
2021/05/23 03:33:50;;;;;;;5.28;2.00;;;;;;;;;;5115845;28;20463;-68
2021/05/23 03:36:17;;;;;;;4.40;2.10;;;;;;;;;;5115767;28;20031;-67
2021/05/23 03:38:44;;;;;;;2.65;1.67;;;;;;;;;;5116059;28;20031;-67
2021/05/23 03:41:10;;;;;;;3.83;2.60;;;;;;;;;;5115927;28;20076;-66
2021/05/23 03:43:36;;;;;;;2.78;2.03;;;;;;;;;;5115648;28;20033;-67
2021/05/23 03:46:02;;;;;;;3.63;1.90;;;;;;;;;;5115891;28;20386;-66
2021/05/23 03:48:28;;;;;;;3.25;1.90;;;;;;;;;;5115446;28;20027;-67
2021/05/23 03:50:54;;;;;;;5.50;2.20;;;;;;;;;;5115364;28;20034;-68
2021/05/23 03:53:21;;;;;;;4.18;2.65;;;;;;;;;;5115460;28;20024;-66
2021/05/23 03:55:49;;;;;;;2.85;1.75;;;;;;;;;;5115494;28;20024;-67
2021/05/23 03:58:15;;;;;;;5.95;2.00;;;;;;;;;;5115352;28;20051;-68
2021/05/23 04:00:41;;;;;;;6.85;2.03;;;;;;;;;;5115377;28;20068;-68
2021/05/23 04:03:07;;;;;;;3.05;1.98;;;;;;;;;;5115394;28;20078;-67
2021/05/23 04:05:33;;;;;;;2.50;1.60;;;;;;;;;;5115101;28;20118;-67
2021/05/23 04:08:00;;;;;;;2.97;1.73;;;;;;;;;;5114917;28;20048;-67
2021/05/23 04:10:30;;;;;;;2.25;2.08;;;;;;;;;;5115097;28;20030;-67
2021/05/23 04:12:57;;;;;;;9.55;2.03;;;;;;;;;;5115410;28;20027;-66
2021/05/23 04:15:24;;;;;;;3.55;1.92;;;;;;;;;;5115214;28;20432;-66
2021/05/23 04:17:51;;;;;;;3.15;2.30;;;;;;;;;;5114974;28;20035;-67
2021/05/23 04:20:22;;;;;;;2.90;1.90;;;;;;;;;;5114439;28;20054;-67
2021/05/23 04:22:49;;;;;;;3.25;1.80;;;;;;;;;;5115226;28;20028;-67
2021/05/23 04:25:16;;;;;;;3.10;1.70;;;;;;;;;;5114729;28;20115;-67
2021/05/23 04:27:43;;;;;;;2.85;2.03;;;;;;;;;;5114786;28;20020;-66
2021/05/23 04:30:10;;;;;;;3.88;1.80;;;;;;;;;;5114655;28;20027;-67
2021/05/23 04:32:36;;;;;;;2.47;1.73;;;;;;;;;;5114722;28;20020;-67
2021/05/23 04:35:03;;;;;;;5.38;2.10;;;;;;;;;;5114837;28;20027;-66
2021/05/23 04:37:29;;;;;;;3.95;1.90;;;;;;;;;;5114586;28;20012;-66
2021/05/23 04:39:55;;;;;;;3.08;1.80;;;;;;;;;;5114539;28;20054;-67
2021/05/23 04:42:21;;;;;;;5.53;1.70;;;;;;;;;;5114498;28;20020;-66
2021/05/23 04:44:47;;;;;;;3.13;1.67;;;;;;;;;;5114585;28;20034;-66
2021/05/23 04:47:13;;;;;;;2.65;1.70;;;;;;;;;;5114413;28;20024;-66
2021/05/23 04:49:39;;;;;;;2.33;1.85;;;;;;;;;;5114262;28;20020;-67
2021/05/23 04:52:07;;;;;;;1.70;1.60;;;;;;;;;;5114348;28;20019;-68
2021/05/23 04:54:33;;;;;;;2.35;1.63;;;;;;;;;;5114471;28;20020;-67
2021/05/23 04:56:59;;;;;;;2.97;1.90;;;;;;;;;;5114229;28;20015;-66
2021/05/23 04:59:25;;;;;;;2.03;1.90;;;;;;;;;;5114251;28;20023;-66
2021/05/23 05:01:51;;;;;;;5.03;2.13;;;;;;;;;;5114046;28;20030;-66
2021/05/23 05:04:18;;;;;;;2.30;1.73;;;;;;;;;;5114065;28;20027;-66
2021/05/23 05:06:44;;;;;;;5.57;1.90;;;;;;;;;;5113881;28;20132;-65
2021/05/23 05:09:10;;;;;;;3.28;2.20;;;;;;;;;;5113926;28;20015;-66
2021/05/23 05:11:36;;;;;;;2.65;1.67;;;;;;;;;;5113974;28;20093;-67
2021/05/23 05:14:02;;;;;;;3.00;1.63;;;;;;;;;;5113885;28;20095;-66
2021/05/23 05:16:28;;;;;;;6.70;2.25;;;;;;;;;;5113782;28;20016;-66
2021/05/23 05:18:54;;;;;;;5.53;2.63;;;;;;;;;;5113763;28;20090;-66
2021/05/23 05:21:20;;;;;;;2.72;1.90;;;;;;;;;;5113916;28;20032;-66
2021/05/23 05:23:47;;;;;;;3.65;1.67;;;;;;;;;;5113599;28;20113;-66
2021/05/23 05:26:13;;;;;;;3.40;2.05;;;;;;;;;;5113702;28;20039;-66
2021/05/23 05:28:39;;;;;;;3.88;2.20;;;;;;;;;;5113563;28;20111;-66
2021/05/23 05:31:05;;;;;;;3.35;1.80;;;;;;;;;;5112702;28;20020;-66
2021/05/23 05:33:31;;;;;;;4.20;1.77;;;;;;;;;;5113602;28;20024;-66
2021/05/23 05:35:57;;;;;;;3.08;1.70;;;;;;;;;;5113549;28;20098;-66
2021/05/23 05:38:23;;;;;;;4.05;1.88;;;;;;;;;;5113426;28;20028;-67
2021/05/23 05:40:49;;;;;;;6.63;1.90;;;;;;;;;;5113502;28;20035;-67
2021/05/23 05:43:15;;;;;;;3.28;1.80;;;;;;;;;;5113390;28;20031;-67
2021/05/23 05:45:41;;;;;;;4.07;2.03;;;;;;;;;;5113231;28;20115;-66
2021/05/23 05:48:07;;;;;;;1.90;1.60;;;;;;;;;;5113217;28;20027;-66
2021/05/23 05:50:34;;;;;;;3.30;1.65;;;;;;;;;;5113286;28;20022;-66
2021/05/23 05:53:00;;;;;;;1.50;1.40;;;;;;;;;;5113201;28;20023;-66
2021/05/23 05:55:26;;;;;;;4.80;1.67;;;;;;;;;;5113176;28;20058;-66
2021/05/23 05:57:52;;;;;;;2.20;1.73;;;;;;;;;;5113112;28;20022;-66
2021/05/23 06:00:18;;;;;;;3.28;1.95;;;;;;;;;;5112941;28;20032;-67
2021/05/23 06:02:45;;;;;;;3.47;1.83;;;;;;;;;;5113092;28;20103;-66
2021/05/23 06:05:11;;;;;;;2.13;1.35;;;;;;;;;;5113167;28;20024;-66
2021/05/23 06:07:37;;;;;;;2.50;1.63;;;;;;;;;;5112722;28;20047;-66
2021/05/23 06:10:03;;;;;;;6.70;1.80;;;;;;;;;;5113004;28;20055;-66
2021/05/23 06:12:29;;;;;;;3.88;1.77;;;;;;;;;;5112980;28;20015;-65
2021/05/23 06:14:56;;;;;;;2.13;1.70;;;;;;;;;;5112841;28;20501;-65
2021/05/23 06:17:22;;;;;;;1.80;1.65;;;;;;;;;;5112895;28;20447;-66
2021/05/23 06:19:48;;;;;;;7.13;2.03;;;;;;;;;;5112943;28;20542;-66
2021/05/23 06:22:14;;;;;;;3.33;1.70;;;;;;;;;;5112876;28;20024;-66
2021/05/23 06:24:41;;;;;;;2.10;1.63;;;;;;;;;;5112654;28;20020;-65
2021/05/23 06:27:07;;;;;;;3.22;1.80;;;;;;;;;;5112852;28;20019;-67
2021/05/23 06:29:33;;;;;;;4.03;1.83;;;;;;;;;;5112620;28;20028;-66
2021/05/23 06:31:59;;;;;;;3.72;1.90;;;;;;;;;;5112781;28;20024;-66
2021/05/23 06:34:25;;;;;;;5.13;1.70;;;;;;;;;;5112997;28;20378;-66
2021/05/23 06:36:51;;;;;;;3.88;1.83;;;;;;;;;;5112716;28;20016;-67
2021/05/23 06:39:17;;;;;;;2.95;1.90;;;;;;;;;;5112666;28;20032;-65
2021/05/23 06:41:44;;;;;;;4.78;2.00;;;;;;;;;;5112648;28;20078;-66
2021/05/23 06:44:10;;;;;;;5.40;1.95;;;;;;;;;;5116476;28;20427;-66
2021/05/23 06:46:36;;;;;;;1.83;1.65;;;;;;;;;;5116747;28;20486;-67
2021/05/23 06:49:02;;;;;;;5.72;1.70;;;;;;;;;;5116605;28;20027;-67
2021/05/23 06:51:29;;;;;;;6.80;2.20;;;;;;;;;;5116955;28;20359;-67
2021/05/23 06:53:55;;;;;;;3.92;2.35;;;;;;;;;;5116759;28;20559;-67
2021/05/23 06:56:21;;;;;;;3.45;2.08;;;;;;;;;;5116593;28;20099;-65
2021/05/23 06:58:47;;;;;;;4.85;1.83;;;;;;;;;;5116406;28;20474;-66
2021/05/23 07:01:13;;;;;;;5.15;2.65;;;;;;;;;;5116586;28;20038;-66
2021/05/23 07:03:39;;;;;;;3.55;2.17;;;;;;;;;;5116476;28;20020;-67
2021/05/23 07:06:05;;;;;;;7.80;2.10;;;;;;;;;;5116392;28;20390;-66
2021/05/23 07:08:32;;;;;;;4.03;1.90;;;;;;;;;;5116255;28;20058;-67
2021/05/23 07:10:58;;;;;;;5.03;2.20;;;;;;;;;;5116271;28;20385;-67
2021/05/23 07:13:26;;;;;;;8.00;2.40;;;;;;;;;;5097824;28;20023;-66
2021/05/23 07:15:52;;;;;;;11.18;2.80;;;;;;;;;;5116296;28;20046;-66
2021/05/23 07:18:18;;;;;;;3.95;2.05;;;;;;;;;;5116497;28;20419;-66
2021/05/23 07:20:45;;;;;;;4.63;2.33;;;;;;;;;;5116132;28;20398;-67
2021/05/23 07:23:11;;;;;;;3.75;1.60;;;;;;;;;;5116046;28;20015;-67
2021/05/23 07:25:37;;;;;;;4.93;2.10;;;;;;;;;;5097679;28;20028;-67
2021/05/23 07:28:04;;;;;;;3.92;2.08;;;;;;;;;;5115749;28;20027;-67
2021/05/23 07:30:30;;;;;;;3.13;1.90;;;;;;;;;;5115995;28;20016;-66
2021/05/23 07:32:56;;;;;;;2.97;1.65;;;;;;;;;;5115855;28;20466;-66
2021/05/23 07:35:22;;;;;;;5.22;1.80;;;;;;;;;;5115809;28;20073;-66
2021/05/23 07:37:48;;;;;;;3.58;2.08;;;;;;;;;;5115739;28;20505;-67
2021/05/23 07:40:15;;;;;;;3.40;2.08;;;;;;;;;;5115799;28;20031;-66
2021/05/23 07:42:42;;;;;;;2.65;1.80;;;;;;;;;;5097310;28;20436;-66
2021/05/23 07:45:09;;;;;;;4.30;1.75;;;;;;;;;;5115577;28;20390;-67
2021/05/23 07:47:35;;;;;;;4.30;1.95;;;;;;;;;;5115466;28;20022;-66
2021/05/23 07:50:01;;;;;;;6.25;2.35;;;;;;;;;;5115720;28;20666;-67
2021/05/23 07:52:28;;;;;;;3.55;2.13;;;;;;;;;;5115558;28;20103;-66
2021/05/23 07:54:54;;;;;;;3.92;1.80;;;;;;;;;;5114633;28;20108;-66
2021/05/23 07:57:20;;;;;;;4.10;2.35;;;;;;;;;;5115353;28;20023;-66
2021/05/23 07:59:46;;;;;;;2.95;2.00;;;;;;;;;;5115673;28;20415;-67
2021/05/23 08:02:12;;;;;;;2.88;1.85;;;;;;;;;;5115278;28;20474;-66
2021/05/23 08:04:38;;;;;;;3.17;2.10;;;;;;;;;;5115353;28;20417;-66
2021/05/23 08:07:04;;;;;;;3.92;2.08;;;;;;;;;;5115068;28;20414;-66
2021/05/23 08:09:30;;;;;;;4.68;1.95;;;;;;;;;;5115131;28;20106;-67
2021/05/23 08:11:57;;;;;;;2.58;1.80;;;;;;;;;;5115311;28;20047;-67
2021/05/23 08:14:23;;;;;;;2.97;1.75;;;;;;;;;;5115104;28;20020;-66
2021/05/23 08:16:49;;;;;;;2.85;1.55;;;;;;;;;;5115341;28;20022;-67
2021/05/23 08:19:15;;;;;;;3.75;1.60;;;;;;;;;;5115000;28;20023;-67
2021/05/23 08:21:41;;;;;;;4.57;2.10;;;;;;;;;;5115291;28;20431;-66
2021/05/23 08:24:08;;;;;;;2.83;1.70;;;;;;;;;;5113424;28;20095;-66
2021/05/23 08:26:34;;;;;;;3.30;1.60;;;;;;;;;;5114755;28;20058;-67
2021/05/23 08:29:01;;;;;;;3.33;1.60;;;;;;;;;;5114765;28;20038;-66
2021/05/23 08:31:27;;;;;;;1.92;1.70;;;;;;;;;;5114828;28;20019;-67
2021/05/23 08:33:53;;;;;;;3.95;2.00;;;;;;;;;;5114711;28;20026;-66
2021/05/23 08:36:20;;;;;;;3.13;1.80;;;;;;;;;;5114665;28;20466;-66
2021/05/23 08:38:46;;;;;;;3.53;1.60;;;;;;;;;;5114971;28;20107;-65
2021/05/23 08:41:15;;;;;;;4.22;1.60;;;;;;;;;;5114510;28;20019;-67
2021/05/23 08:43:41;;;;;;;3.00;1.60;;;;;;;;;;5114555;28;20020;-66
2021/05/23 08:46:07;;;;;;;3.47;1.40;;;;;;;;;;5114521;28;20517;-65
2021/05/23 08:48:34;;;;;;;3.92;1.30;;;;;;;;;;5114320;28;20039;-65
2021/05/23 08:51:00;;;;;;;2.88;1.60;;;;;;;;;;5114408;28;20023;-68
2021/05/23 08:53:27;;;;;;;4.13;1.70;;;;;;;;;;5114435;28;20055;-65
2021/05/23 08:55:53;;;;;;;3.70;2.25;;;;;;;;;;5114168;28;20028;-66
2021/05/23 08:58:19;;;;;;;6.13;2.10;;;;;;;;;;5114217;28;20024;-67
2021/05/23 09:00:45;;;;;;;4.43;1.88;;;;;;;;;;5114345;28;20081;-66
2021/05/23 09:03:13;;;;;;;7.20;2.92;;;;;;;;;;5114148;28;20056;-66
2021/05/23 09:05:48;;;;;;;2.95;2.03;;;;;;;;;;5114144;28;20054;-66
2021/05/23 09:08:21;;;;;;;4.10;2.20;;;;;;;;;;5113847;28;20039;-67
2021/05/23 09:10:49;;;;;;;5.57;2.30;;;;;;;;;;5114234;28;20048;-66
2021/05/23 09:13:26;;;;;;;2.95;1.90;;;;;;;;;;5114268;28;20027;-67
2021/05/23 09:16:04;;;;;;;3.25;2.30;;;;;;;;;;5113895;28;20016;-67
2021/05/23 09:18:39;;;;;;;3.25;2.63;;;;;;;;;;5113832;28;20027;-68
2021/05/23 09:21:05;;;;;;;3.45;2.25;;;;;;;;;;5114118;28;20020;-66
2021/05/23 09:23:40;;;;;;;3.38;2.00;;;;;;;;;;5113469;28;20023;-67
2021/05/23 09:26:06;;;;;;;3.33;2.53;;;;;;;;;;5114030;28;20486;-67
2021/05/23 09:28:32;;;;;;;3.72;2.30;;;;;;;;;;5113581;28;20041;-68
2021/05/23 09:30:58;;;;;;;3.00;2.33;;;;;;;;;;5113594;28;20509;-68
2021/05/23 09:33:25;;;;;;;3.80;2.35;;;;;;;;;;5113542;28;20019;-67
2021/05/23 09:35:54;;;;;;;2.75;2.40;;;;;;;;;;5113796;28;20100;-68
2021/05/23 09:38:20;;;;;;;3.55;2.90;;;;;;;;;;5113353;28;20026;-68
2021/05/23 09:40:47;;;;;;;4.93;3.40;;;;;;;;;;5113316;28;20047;-67
2021/05/23 09:43:20;;;;;;;5.97;3.17;;;;;;;;;;5113421;28;20019;-67
2021/05/23 09:45:48;;;;;;;3.45;2.20;;;;;;;;;;5113487;28;20462;-69
2021/05/23 09:48:17;;;;;;;8.00;4.53;;;;;;;;;;5113275;28;20019;-68
2021/05/23 09:50:44;;;;;;;5.10;2.10;;;;;;;;;;5113269;28;20520;-69
2021/05/23 09:53:27;;;;;;;4.22;2.30;;;;;;;;;;5113122;28;20020;-69
2021/05/23 09:56:10;;;;;;;4.25;2.50;;;;;;;;;;5113461;28;20031;-69
2021/05/23 09:58:38;;;;;;;3.65;2.83;;;;;;;;;;5113462;28;20054;-69
2021/05/23 10:01:05;;;;;;;2.67;2.00;;;;;;;;;;5113229;28;20047;-70
2021/05/23 10:03:32;;;;;;;7.47;4.75;;;;;;;;;;5094965;28;20031;-70
2021/05/23 10:05:59;;;;;;;3.78;2.50;;;;;;;;;;5113071;28;20076;-69
2021/05/23 10:08:26;;;;;;;8.13;5.72;;;;;;;;;;5112699;28;20447;-70
2021/05/23 10:10:53;;;;;;;5.15;3.95;;;;;;;;;;5112989;28;20024;-69
2021/05/23 10:13:19;;;;;;;3.70;3.30;;;;;;;;;;5113019;28;20030;-70
2021/05/23 10:15:45;;;;;;;3.03;2.40;;;;;;;;;;5113015;28;20386;-68
2021/05/23 10:18:12;;;;;;;3.75;3.20;;;;;;;;;;5112340;28;20111;-68
2021/05/23 10:20:38;;;;;;;3.58;2.40;;;;;;;;;;5112979;28;20035;-69
2021/05/23 10:23:08;;;;;;;2.72;1.80;;;;;;;;;;5112757;28;20496;-69
2021/05/23 10:25:35;;;;;;;2.72;1.80;;;;;;;;;;5112640;28;20023;-69
2021/05/23 10:28:02;;;;;;;3.00;1.90;;;;;;;;;;5112765;28;20024;-68
2021/05/23 10:30:28;;;;;;;3.50;2.05;;;;;;;;;;5094511;28;20505;-68
2021/05/23 10:32:54;;;;;;;4.65;2.22;;;;;;;;;;5094500;28;20076;-68
2021/05/23 10:35:22;;;;;;;6.50;5.22;;;;;;;;;;5112662;28;20031;-68
2021/05/23 10:37:50;;;;;;;6.63;4.25;;;;;;;;;;5112745;28;20080;-68
2021/05/23 10:40:17;;;;;;;3.15;2.65;;;;;;;;;;5112666;28;20054;-68
2021/05/23 10:43:09;;;;;;;3.55;2.28;;;;;;;;;;5112699;28;20517;-68
2021/05/23 10:45:38;;;;;;;5.05;3.20;;;;;;;;;;5109237;28;20464;-69
2021/05/23 10:48:12;;;;;;;3.45;2.50;;;;;;;;;;5112846;28;20031;-69
2021/05/23 10:50:39;;;;;;;2.53;2.10;;;;;;;;;;5112758;28;20024;-68
2021/05/23 10:53:06;;;;;;;3.55;2.28;;;;;;;;;;5112449;28;20022;-67
2021/05/23 10:55:33;;;;;;;4.68;2.90;;;;;;;;;;5112514;28;20059;-67
2021/05/23 10:57:59;;;;;;;3.75;2.40;;;;;;;;;;5112568;28;20558;-69
2021/05/23 11:00:31;;;;;;;3.63;2.53;;;;;;;;;;5112717;28;20031;-68
2021/05/23 11:02:58;;;;;;;2.47;1.90;;;;;;;;;;5112630;28;20027;-69
2021/05/23 11:05:26;;;;;;;3.50;2.10;;;;;;;;;;5112306;28;20024;-68
2021/05/23 11:07:56;;;;;;;3.55;2.90;;;;;;;;;;5112137;28;20048;-68
2021/05/23 11:10:24;;;;;;;4.50;2.85;;;;;;;;;;5112354;28;20031;-68
2021/05/23 11:12:54;;;;;;;2.55;2.20;;;;;;;;;;5112374;28;20106;-67
2021/05/23 11:15:21;;;;;;;3.45;2.20;;;;;;;;;;5112378;28;20378;-67
2021/05/23 11:17:54;;;;;;;3.08;2.40;;;;;;;;;;5112275;28;20023;-69
2021/05/23 11:20:20;;;;;;;4.47;2.13;;;;;;;;;;5112266;28;20028;-67
2021/05/23 11:22:54;;;;;;;5.05;3.00;;;;;;;;;;5112268;28;20440;-68
2021/05/23 11:25:21;;;;;;;4.75;2.45;;;;;;;;;;5112141;28;20030;-67
2021/05/23 11:27:57;;;;;;;3.20;2.22;;;;;;;;;;5112135;28;20102;-68
2021/05/23 11:30:25;;;;;;;2.55;2.00;;;;;;;;;;5116133;28;20377;-68
2021/05/23 11:32:58;;;;;;;2.70;1.80;;;;;;;;;;5115988;28;20023;-68
2021/05/23 11:35:25;;;;;;;2.60;2.10;;;;;;;;;;5115714;28;20015;-69
2021/05/23 11:37:55;;;;;;;3.42;2.25;;;;;;;;;;5115927;28;20038;-67
2021/05/23 11:40:21;;;;;;;2.63;2.25;;;;;;;;;;5115761;28;20458;-68
2021/05/23 11:42:48;;;;;;;2.40;2.20;;;;;;;;;;5115762;28;20429;-68
2021/05/23 11:45:24;;;;;;;3.53;1.90;;;;;;;;;;5115692;28;20015;-68
2021/05/23 11:47:52;;;;;;;2.42;1.95;;;;;;;;;;5115477;28;20427;-68
2021/05/23 11:50:27;;;;;;;3.22;1.85;;;;;;;;;;5115545;28;20102;-67
2021/05/23 11:52:55;;;;;;;3.97;2.08;;;;;;;;;;5115574;28;20020;-69
2021/05/23 11:55:22;;;;;;;2.28;2.08;;;;;;;;;;5115549;28;20038;-68
2021/05/23 11:57:50;;;;;;;3.45;2.42;;;;;;;;;;5115458;28;20045;-68
2021/05/23 12:00:20;;;;;;;2.42;1.98;;;;;;;;;;5115311;28;20088;-69
2021/05/23 12:02:47;;;;;;;3.35;2.17;;;;;;;;;;5115260;28;20073;-68
2021/05/23 12:05:13;;;;;;;4.15;2.00;;;;;;;;;;5115427;28;20019;-68
2021/05/23 12:07:41;;;;;;;2.20;2.00;;;;;;;;;;5115109;28;20044;-67
2021/05/23 12:10:08;;;;;;;2.15;1.90;;;;;;;;;;5115154;28;20519;-67
2021/05/23 12:12:34;;;;;;;2.78;1.77;;;;;;;;;;5115268;28;20019;-68
2021/05/23 12:15:00;;;;;;;3.33;2.30;;;;;;;;;;5115119;28;20027;-68
2021/05/23 12:17:26;;;;;;;3.47;2.10;;;;;;;;;;5114928;28;20541;-67
2021/05/23 12:19:53;;;;;;;3.70;1.83;;;;;;;;;;5115082;28;20087;-67
2021/05/23 12:22:20;;;;;;;3.63;2.22;;;;;;;;;;5114979;28;20028;-68
2021/05/23 12:24:47;;;;;;;4.00;2.15;;;;;;;;;;5115044;28;20020;-67
2021/05/23 12:27:23;;;;;;;2.65;2.10;;;;;;;;;;5096622;28;20019;-68
2021/05/23 12:29:49;;;;;;;4.85;2.15;;;;;;;;;;5114817;28;20019;-68
2021/05/23 12:32:15;;;;;;;2.80;2.20;;;;;;;;;;5096378;28;20028;-66
2021/05/23 12:34:42;;;;;;;3.40;2.25;;;;;;;;;;5114718;28;20023;-67
2021/05/23 12:37:08;;;;;;;2.97;2.08;;;;;;;;;;5114674;28;20472;-67
2021/05/23 12:39:34;;;;;;;5.13;2.55;;;;;;;;;;5114656;28;20023;-68
2021/05/23 12:42:03;;;;;;;8.13;2.88;;;;;;;;;;5114139;28;20529;-67
2021/05/23 12:44:30;;;;;;;2.58;1.95;;;;;;;;;;5114584;28;20081;-65
2021/05/23 12:47:08;;;;;;;2.25;2.00;;;;;;;;;;5114402;28;20031;-66
2021/05/23 12:49:34;;;;;;;3.63;2.10;;;;;;;;;;5114656;28;20382;-66
2021/05/23 12:52:00;;;;;;;2.40;2.20;;;;;;;;;;5114472;28;20554;-67
2021/05/23 12:54:31;;;;;;;2.45;2.25;;;;;;;;;;5114437;28;20027;-66
2021/05/23 12:56:57;;;;;;;2.67;2.25;;;;;;;;;;5114186;28;20020;-67
2021/05/23 12:59:24;;;;;;;2.60;1.92;;;;;;;;;;5114278;28;20027;-67
2021/05/23 13:01:51;;;;;;;2.58;1.80;;;;;;;;;;5114055;28;20106;-66
2021/05/23 13:04:23;;;;;;;3.35;2.38;;;;;;;;;;5114428;28;20535;-66
2021/05/23 13:06:57;;;;;;;3.28;2.00;;;;;;;;;;5113919;28;20044;-66
2021/05/23 13:09:30;;;;;;;2.83;2.28;;;;;;;;;;5114053;28;20092;-67
2021/05/23 13:12:00;;;;;;;2.85;1.88;;;;;;;;;;5114066;28;20016;-66
2021/05/23 13:14:28;;;;;;;2.28;1.98;;;;;;;;;;5112224;28;20046;-67
2021/05/23 13:16:57;;;;;;;3.03;2.10;;;;;;;;;;5113771;28;20020;-66
2021/05/23 13:19:24;;;;;;;3.53;2.00;;;;;;;;;;5113843;28;20035;-66
2021/05/23 13:21:52;;;;;;;2.97;1.75;;;;;;;;;;5113859;28;20024;-66
2021/05/23 13:24:22;;;;;;;4.05;1.95;;;;;;;;;;5113587;28;20508;-66
2021/05/23 13:26:49;;;;;;;2.58;1.98;;;;;;;;;;5095646;28;20397;-66
2021/05/23 13:29:15;;;;;;;3.63;1.98;;;;;;;;;;5113541;28;20054;-67
2021/05/23 13:31:41;;;;;;;4.63;2.95;;;;;;;;;;5113799;28;20070;-66
2021/05/23 13:34:08;;;;;;;3.55;2.50;;;;;;;;;;5113561;28;20027;-67
2021/05/23 13:36:34;;;;;;;2.63;2.40;;;;;;;;;;5113875;28;20054;-66
2021/05/23 13:39:00;;;;;;;4.90;2.78;;;;;;;;;;5113452;28;20023;-67
2021/05/23 13:41:28;;;;;;;3.00;2.60;;;;;;;;;;5113470;28;20035;-66
2021/05/23 13:43:54;;;;;;;3.25;2.00;;;;;;;;;;5113171;28;20023;-67
2021/05/23 13:46:20;;;;;;;6.38;4.25;;;;;;;;;;5113462;28;20027;-66
2021/05/23 13:48:46;;;;;;;2.97;2.17;;;;;;;;;;5113273;28;20028;-66
2021/05/23 13:51:13;;;;;;;3.00;2.28;;;;;;;;;;5113320;28;20022;-67
2021/05/23 13:53:39;;;;;;;4.85;2.63;;;;;;;;;;5112742;28;20095;-66
2021/05/23 13:56:05;;;;;;;2.70;1.90;;;;;;;;;;5113220;28;20103;-66
2021/05/23 13:58:31;;;;;;;5.10;2.67;;;;;;;;;;5113057;28;20092;-67
2021/05/23 14:00:57;;;;;;;3.25;2.40;;;;;;;;;;5113216;28;20023;-66
2021/05/23 14:03:24;;;;;;;2.45;2.10;;;;;;;;;;5113095;28;20481;-68
2021/05/23 14:05:55;;;;;;;3.15;1.98;;;;;;;;;;5112937;28;20110;-66
2021/05/23 14:08:22;;;;;;;2.30;1.92;;;;;;;;;;5112780;28;20040;-66
2021/05/23 14:10:49;;;;;;;2.72;2.53;;;;;;;;;;5112994;28;20019;-66
2021/05/23 14:13:15;;;;;;;4.47;2.45;;;;;;;;;;5094549;28;20024;-68
2021/05/23 14:15:41;;;;;;;3.65;3.35;;;;;;;;;;5112892;28;20027;-68
2021/05/23 14:18:07;;;;;;;2.50;2.15;;;;;;;;;;5113157;28;20035;-67
2021/05/23 14:20:34;;;;;;;2.38;2.17;;;;;;;;;;5112898;28;20107;-69
2021/05/23 14:23:01;;;;;;;5.30;3.58;;;;;;;;;;5111962;28;20028;-66
2021/05/23 14:25:28;;;;;;;4.13;2.20;;;;;;;;;;5092582;28;20024;-67
2021/05/23 14:27:54;;;;;;;4.70;3.13;;;;;;;;;;5092285;28;20467;-67
2021/05/23 14:30:21;;;;;;;3.15;2.42;;;;;;;;;;5092357;28;20028;-66
2021/05/23 14:32:47;;;;;;;4.72;3.70;;;;;;;;;;5092446;28;20024;-67
2021/05/23 14:35:15;;;;;;;4.55;2.90;;;;;;;;;;5092499;28;20425;-67
2021/05/23 14:37:41;;;;;;;2.00;1.80;;;;;;;;;;5073781;28;20127;-66
2021/05/23 14:40:08;;;;;;;3.40;2.55;;;;;;;;;;5092263;28;20060;-67
2021/05/23 14:42:34;;;;;;;2.58;1.75;;;;;;;;;;5095855;28;20107;-70